NORTHEAST SUFFOLK  -  Winter Weather Advisory Winter Weather Advisory        NORTHERN NASSAU  -  Winter Weather Advisory Winter Weather Advisory        NORTHWEST SUFFOLK  -  Winter Weather Advisory Winter Weather Advisory        SOUTHEAST SUFFOLK  -  Winter Weather Advisory Winter Weather Advisory        SOUTHERN NASSAU  -  Winter Weather Advisory Winter Weather Advisory        SOUTHWEST SUFFOLK  -  Winter Weather Advisory Winter Weather Advisory      

Active alerts

Northern Nassau
  Details for Northern Nassau Winter Weather Advisory
Southern Nassau
  Details for Southern Nassau Winter Weather Advisory
Northwest Suffolk
  Details for Northwest Suffolk Winter Weather Advisory
Southwest Suffolk
  Details for Southwest Suffolk Winter Weather Advisory
Northeast Suffolk
  Details for Northeast Suffolk Winter Weather Advisory
Southeast Suffolk
  Details for Southeast Suffolk Winter Weather Advisory


WXM80 ListenWXM80 Stop

You find our weather info also at:

UK Metoffice

WeatherCloud

Weather Underground

Northeastern Weather Network

AWEKAS

Citizen Weather Observer Program (CWOP)

HAMweather, WeatherForYou, PWS Weather


Weather Underground History page Text

Daily Summary for August 19, 2017 Units:  English    Metric   Both
« Previous Day
Next Day »
Daily Weekly Monthly Yearly Custom
  High: Low: Average:
Temperature: 92.2 °F 72.2 °F 80 °F
Dew Point: 78.0 °F 67.4 °F 71.4 °F
Humidity: 98 % 48 % 78 %
Wind Speed: 6.0 mph 0.0 mph 1 mph
Wind Gust: 10.4 mph - -
Wind:- - WSW
Pressure: 29.83 in 29.70 in -
Precipitation: 0.01 in    
Historical Graphs
 
 
Tabular Data for August 19, 2017
Time Temperature Dew Point Pressure Wind Wind Speed Wind Gust Humidity Rainfall Rate (Hourly)
00:00 73.8 °F 72.3 °F 29.74 in Calm   2.3 mph 95 % 0.00 in
00:05 73.8 °F 72.3 °F 29.75 in Calm   1.0 mph 95 % 0.00 in
00:10 73.7 °F 72.2 °F 29.74 in SW 1.3 mph 2.3 mph 95 % 0.00 in
00:15 73.7 °F 72.2 °F 29.74 in West 4.1 mph 5.8 mph 95 % 0.00 in
00:21 73.7 °F 72.2 °F 29.74 in WSW 2.8 mph 4.0 mph 95 % 0.00 in
00:26 73.6 °F 72.1 °F 29.74 in SW 3.0 mph 10.0 mph 95 % 0.00 in
00:31 73.6 °F 72.1 °F 29.74 in SSW 3.2 mph 6.9 mph 95 % 0.00 in
00:36 73.5 °F 72.0 °F 29.74 in SW 3.0 mph 10.0 mph 95 % 0.00 in
00:41 73.5 °F 72.0 °F 29.74 in WSW 2.0 mph 8.0 mph 95 % 0.00 in
00:46 73.5 °F 72.0 °F 29.74 in WSW 2.0 mph 6.0 mph 95 % 0.00 in
00:51 73.5 °F 72.0 °F 29.73 in WSW 3.0 mph 8.0 mph 95 % 0.00 in
00:55 73.5 °F 72.0 °F 29.73 in SW 1.0 mph 3.5 mph 95 % 0.00 in
01:01 73.5 °F 72.0 °F 29.73 in WSW 3.2 mph 4.6 mph 95 % 0.00 in
01:06 73.5 °F 72.0 °F 29.73 in West 3.2 mph 5.8 mph 95 % 0.00 in
01:11 73.5 °F 72.0 °F 29.72 in SSW 1.3 mph 3.5 mph 95 % 0.00 in
01:16 73.5 °F 72.0 °F 29.72 in SW 0.7 mph 2.3 mph 95 % 0.00 in
01:21 73.5 °F 72.0 °F 29.71 in WSW 3.1 mph 5.8 mph 95 % 0.00 in
01:26 73.5 °F 72.0 °F 29.71 in WSW 0.6 mph 2.3 mph 95 % 0.00 in
01:31 73.5 °F 72.0 °F 29.71 in WSW 0.3 mph 1.2 mph 95 % 0.00 in
01:36 73.4 °F 71.9 °F 29.71 in WSW 0.1 mph 1.2 mph 95 % 0.00 in
01:41 73.4 °F 71.9 °F 29.71 in WSW 1.9 mph 3.5 mph 95 % 0.00 in
01:46 73.4 °F 71.9 °F 29.71 in SW 1.7 mph 3.0 mph 95 % 0.00 in
01:51 73.4 °F 71.9 °F 29.71 in SW 2.0 mph 5.0 mph 95 % 0.00 in
01:56 73.3 °F 71.8 °F 29.71 in SSW 1.9 mph 3.5 mph 95 % 0.00 in
02:01 73.3 °F 71.8 °F 29.71 in WSW 3.2 mph 4.0 mph 95 % 0.00 in
02:06 73.3 °F 71.8 °F 29.71 in Calm   1.2 mph 95 % 0.00 in
02:11 73.3 °F 71.8 °F 29.71 in SW 0.8 mph 2.3 mph 95 % 0.00 in
02:16 73.3 °F 71.8 °F 29.71 in Calm   3.5 mph 95 % 0.00 in
02:21 73.2 °F 71.7 °F 29.70 in SW 0.5 mph 3.5 mph 95 % 0.00 in
02:26 73.2 °F 71.7 °F 29.71 in SW 1.5 mph 3.5 mph 95 % 0.00 in
02:31 73.2 °F 71.7 °F 29.71 in WSW 0.3 mph 1.2 mph 95 % 0.00 in
02:36 73.2 °F 71.7 °F 29.71 in WNW 0.2 mph 3.5 mph 95 % 0.00 in
02:41 73.2 °F 72.0 °F 29.71 in Calm   1.2 mph 96 % 0.00 in
02:46 73.2 °F 72.0 °F 29.70 in WSW 0.2 mph 1.2 mph 96 % 0.00 in
02:51 73.1 °F 71.9 °F 29.70 in WSW 1.0 mph 2.3 mph 96 % 0.00 in
02:56 73.1 °F 71.9 °F 29.70 in Calm   2.3 mph 96 % 0.00 in
03:01 73.1 °F 71.9 °F 29.70 in Calm   2.3 mph 96 % 0.00 in
03:07 73.1 °F 71.9 °F 29.71 in Calm   1.2 mph 96 % 0.00 in
03:12 73.2 °F 72.0 °F 29.71 in SW 0.2 mph 1.0 mph 96 % 0.00 in
03:17 73.2 °F 72.0 °F 29.71 in SW 0.2 mph 2.3 mph 96 % 0.00 in
03:22 73.2 °F 72.0 °F 29.71 in Calm     96 % 0.00 in
03:27 73.2 °F 72.0 °F 29.71 in Calm     96 % 0.00 in
03:32 73.1 °F 71.9 °F 29.71 in Calm     96 % 0.00 in
03:37 73.1 °F 71.9 °F 29.71 in Calm     96 % 0.00 in
03:42 73.1 °F 71.9 °F 29.72 in Calm     96 % 0.00 in
03:47 73.0 °F 71.8 °F 29.72 in SW 0.1 mph   96 % 0.00 in
03:52 72.9 °F 71.7 °F 29.72 in Calm     96 % 0.00 in
03:57 72.9 °F 71.7 °F 29.72 in SW 0.4 mph 2.3 mph 96 % 0.00 in
04:02 72.9 °F 71.7 °F 29.71 in Calm     96 % 0.00 in
04:07 72.8 °F 71.6 °F 29.72 in SW 1.1 mph 3.5 mph 96 % 0.00 in
04:12 72.8 °F 71.6 °F 29.72 in Calm     96 % 0.00 in
04:17 72.7 °F 71.5 °F 29.72 in Calm     96 % 0.00 in
04:22 72.7 °F 71.5 °F 29.72 in Calm     96 % 0.00 in
04:27 72.6 °F 71.4 °F 29.72 in Calm     96 % 0.00 in
04:32 72.6 °F 71.4 °F 29.72 in Calm     96 % 0.00 in
04:37 72.5 °F 71.3 °F 29.72 in Calm     96 % 0.00 in
04:42 72.5 °F 71.3 °F 29.72 in Calm     96 % 0.00 in
04:47 72.4 °F 71.2 °F 29.73 in Calm     96 % 0.00 in
04:52 72.4 °F 71.2 °F 29.73 in Calm     96 % 0.00 in
04:57 72.3 °F 71.1 °F 29.73 in Calm     96 % 0.00 in
05:02 72.3 °F 71.1 °F 29.73 in Calm     96 % 0.00 in
05:07 72.2 °F 71.0 °F 29.73 in Calm     96 % 0.00 in
05:12 72.2 °F 71.0 °F 29.73 in SW 0.5 mph 2.3 mph 96 % 0.00 in
05:17 72.2 °F 71.0 °F 29.73 in Calm   1.2 mph 96 % 0.00 in
05:22 72.2 °F 71.0 °F 29.74 in Calm   1.2 mph 96 % 0.00 in
05:27 72.2 °F 71.0 °F 29.74 in WSW 1.5 mph 3.5 mph 96 % 0.00 in
05:32 72.3 °F 71.1 °F 29.74 in SW 1.0 mph 3.5 mph 96 % 0.00 in
05:37 72.3 °F 71.1 °F 29.74 in SW 1.2 mph 2.3 mph 96 % 0.00 in
05:43 72.3 °F 71.4 °F 29.74 in SW 0.8 mph 3.0 mph 97 % 0.00 in
05:48 72.3 °F 71.4 °F 29.75 in Calm   1.2 mph 97 % 0.00 in
05:53 72.3 °F 71.4 °F 29.75 in WSW 0.7 mph 3.5 mph 97 % 0.00 in
05:58 72.3 °F 71.4 °F 29.75 in West 0.1 mph 1.2 mph 97 % 0.00 in
06:03 72.3 °F 71.4 °F 29.75 in Calm     97 % 0.00 in
06:08 72.3 °F 71.4 °F 29.75 in Calm     97 % 0.00 in
06:13 72.4 °F 71.5 °F 29.75 in SW 1.4 mph 4.0 mph 97 % 0.00 in
06:18 72.4 °F 71.5 °F 29.75 in SW 0.3 mph 2.3 mph 97 % 0.00 in
06:23 72.4 °F 71.5 °F 29.75 in SW 0.2 mph 2.3 mph 97 % 0.00 in
06:28 72.5 °F 71.6 °F 29.75 in WSW 1.4 mph 3.5 mph 97 % 0.00 in
06:33 72.5 °F 71.6 °F 29.75 in Calm     97 % 0.00 in
06:38 72.5 °F 71.6 °F 29.76 in West 0.9 mph 3.0 mph 97 % 0.00 in
06:43 72.5 °F 71.6 °F 29.75 in Calm     97 % 0.00 in
06:48 72.6 °F 71.7 °F 29.75 in West 0.7 mph 2.0 mph 97 % 0.00 in
06:53 72.6 °F 71.7 °F 29.76 in Calm     97 % 0.00 in
06:58 72.7 °F 71.8 °F 29.76 in WNW 1.2 mph 2.3 mph 97 % 0.00 in
07:03 72.7 °F 71.8 °F 29.76 in WNW 0.1 mph 1.2 mph 97 % 0.00 in
07:08 72.8 °F 71.9 °F 29.76 in Calm     97 % 0.00 in
07:13 72.8 °F 71.9 °F 29.76 in Calm   1.2 mph 97 % 0.00 in
07:18 72.9 °F 72.0 °F 29.76 in WNW 0.1 mph 2.3 mph 97 % 0.00 in
07:23 72.9 °F 72.0 °F 29.76 in Calm   3.5 mph 97 % 0.00 in
07:28 73.0 °F 72.1 °F 29.76 in West 0.8 mph 3.5 mph 97 % 0.00 in
07:33 73.0 °F 72.1 °F 29.77 in West 0.2 mph 3.0 mph 97 % 0.00 in
07:38 73.1 °F 72.2 °F 29.77 in West 1.0 mph 3.5 mph 97 % 0.00 in
07:43 73.2 °F 72.3 °F 29.77 in Calm   2.3 mph 97 % 0.00 in
07:48 73.3 °F 72.4 °F 29.77 in West 1.2 mph 4.6 mph 97 % 0.00 in
07:53 73.4 °F 72.5 °F 29.77 in WNW 0.6 mph 3.5 mph 97 % 0.00 in
07:58 73.5 °F 72.6 °F 29.77 in West 0.8 mph 2.3 mph 97 % 0.00 in
08:03 73.6 °F 72.7 °F 29.77 in West 1.3 mph 3.5 mph 97 % 0.00 in
08:08 73.7 °F 73.1 °F 29.77 in WNW 1.6 mph 1.6 mph 98 % 0.00 in
08:13 73.8 °F 73.2 °F 29.78 in WNW 0.7 mph 3.5 mph 98 % 0.00 in
08:18 73.9 °F 73.3 °F 29.78 in WNW 0.9 mph 2.3 mph 98 % 0.00 in
08:23 73.9 °F 73.0 °F 29.78 in WNW 1.4 mph 4.6 mph 97 % 0.00 in
08:28 73.9 °F 73.0 °F 29.78 in WNW 1.6 mph 2.3 mph 97 % 0.00 in
08:33 74.0 °F 73.1 °F 29.78 in WNW 0.7 mph 3.5 mph 97 % 0.00 in
08:39 74.0 °F 73.1 °F 29.78 in WSW 1.1 mph 3.5 mph 97 % 0.00 in
08:44 74.0 °F 73.1 °F 29.78 in West 1.1 mph 2.3 mph 97 % 0.00 in
08:49 74.1 °F 73.2 °F 29.79 in WSW 1.8 mph 3.5 mph 97 % 0.00 in
08:54 74.1 °F 73.2 °F 29.79 in Calm     97 % 0.00 in
08:59 74.2 °F 73.3 °F 29.79 in WNW 2.5 mph 3.5 mph 97 % 0.00 in
09:04 74.3 °F 73.4 °F 29.79 in West 1.5 mph 3.5 mph 97 % 0.00 in
09:09 74.5 °F 73.6 °F 29.79 in NNE 1.4 mph 3.5 mph 97 % 0.00 in
09:14 74.7 °F 73.8 °F 29.79 in WNW 1.8 mph 3.5 mph 97 % 0.00 in
09:19 74.8 °F 73.6 °F 29.79 in WNW 2.3 mph 3.5 mph 96 % 0.00 in
09:24 75.0 °F 73.8 °F 29.79 in Calm   1.2 mph 96 % 0.00 in
09:29 75.2 °F 74.0 °F 29.79 in Calm     96 % 0.00 in
09:34 75.4 °F 74.2 °F 29.79 in WNW 0.1 mph 1.2 mph 96 % 0.00 in
09:39 75.5 °F 74.0 °F 29.79 in WNW 1.9 mph 3.5 mph 95 % 0.00 in
09:44 75.7 °F 74.2 °F 29.79 in WNW 0.7 mph 3.5 mph 95 % 0.00 in
09:49 76.0 °F 74.5 °F 29.79 in WNW 1.3 mph 3.5 mph 95 % 0.00 in
09:54 76.6 °F 75.1 °F 29.80 in WNW 0.7 mph 3.5 mph 95 % 0.00 in
09:59 77.2 °F 75.3 °F 29.80 in SW 2.4 mph 4.6 mph 94 % 0.00 in
10:00 77.3 °F 75.1 °F 29.80 in SW 0.6 mph 3.5 mph 93 % 0.00 in
10:05 77.9 °F 75.4 °F 29.80 in WSW 1.9 mph 3.5 mph 92 % 0.00 in
10:06 78.0 °F 75.2 °F 29.80 in West 2.9 mph 4.0 mph 91 % 0.00 in
10:11 78.6 °F 75.4 °F 29.80 in NW 2.6 mph 4.0 mph 90 % 0.00 in
10:16 79.0 °F 75.1 °F 29.80 in West 1.1 mph 3.5 mph 88 % 0.00 in
10:17 79.1 °F 75.2 °F 29.80 in West 0.8 mph 2.3 mph 88 % 0.00 in
10:22 79.4 °F 75.5 °F 29.80 in WSW 1.2 mph 4.0 mph 88 % 0.00 in
10:27 79.8 °F 75.6 °F 29.80 in WSW 1.3 mph 3.5 mph 87 % 0.00 in
10:32 80.3 °F 75.4 °F 29.80 in West 0.9 mph 3.5 mph 85 % 0.00 in
10:37 80.8 °F 75.5 °F 29.80 in SW 3.6 mph 4.6 mph 84 % 0.00 in
10:42 81.2 °F 75.5 °F 29.80 in West 0.5 mph 1.2 mph 83 % 0.00 in
10:47 81.7 °F 75.7 °F 29.80 in NW 0.2 mph 2.3 mph 82 % 0.00 in
10:52 82.2 °F 75.8 °F 29.80 in West 1.0 mph 3.5 mph 81 % 0.00 in
10:57 82.7 °F 75.9 °F 29.80 in WNW 0.9 mph 2.3 mph 80 % 0.00 in
11:02 83.3 °F 76.1 °F 29.80 in WNW 1.2 mph 3.5 mph 79 % 0.00 in
11:07 83.7 °F 76.5 °F 29.81 in West 0.1 mph 2.3 mph 79 % 0.00 in
11:12 84.3 °F 75.9 °F 29.80 in Calm   1.2 mph 76 % 0.00 in
11:17 84.8 °F 76.8 °F 29.81 in WNW 0.7 mph 2.0 mph 77 % 0.00 in
11:22 85.3 °F 76.5 °F 29.81 in WNW 0.7 mph 2.3 mph 75 % 0.00 in
11:27 86.0 °F 77.9 °F 29.81 in NW 0.2 mph 1.2 mph 77 % 0.00 in
11:32 86.5 °F 78.0 °F 29.80 in West 0.7 mph 3.5 mph 76 % 0.00 in
11:37 86.9 °F 75.9 °F 29.80 in WNW 2.4 mph 4.6 mph 70 % 0.00 in
11:42 87.2 °F 76.6 °F 29.80 in West 0.8 mph 3.0 mph 71 % 0.00 in
11:47 87.5 °F 76.9 °F 29.80 in West 0.7 mph 2.3 mph 71 % 0.00 in
11:52 87.8 °F 74.6 °F 29.80 in West 3.8 mph 6.9 mph 65 % 0.00 in
11:57 88.0 °F 73.8 °F 29.80 in WSW 4.0 mph 6.0 mph 63 % 0.00 in
12:02 88.2 °F 72.1 °F 29.80 in WSW 1.4 mph 6.9 mph 59 % 0.00 in
12:08 88.3 °F 72.7 °F 29.80 in West 3.4 mph 6.9 mph 60 % 0.00 in
12:13 88.5 °F 72.8 °F 29.80 in NW 1.2 mph 4.6 mph 60 % 0.00 in
12:18 88.7 °F 72.0 °F 29.80 in West 3.1 mph 4.6 mph 58 % 0.00 in
12:21 88.9 °F 72.7 °F 29.80 in WNW 4.1 mph 5.8 mph 59 % 0.00 in
12:26 89.1 °F 71.9 °F 29.80 in WSW 3.0 mph 7.0 mph 57 % 0.01 in
12:31 89.3 °F 71.5 °F 29.80 in WSW 2.0 mph 7.0 mph 56 % 0.00 in
12:36 89.5 °F 69.5 °F 29.80 in WSW 3.0 mph 8.0 mph 52 % 0.00 in
12:41 89.5 °F 69.0 °F 29.80 in WSW 6.0 mph 10.0 mph 51 % 0.00 in
12:46 89.6 °F 70.7 °F 29.80 in WSW 2.0 mph 6.0 mph 54 % 0.00 in
12:51 89.9 °F 71.6 °F 29.80 in WSW 1.0 mph 5.0 mph 55 % 0.00 in
12:56 90.1 °F 70.7 °F 29.80 in West 2.0 mph 6.0 mph 53 % 0.00 in
13:01 90.2 °F 70.2 °F 29.80 in WNW 1.2 mph 10.4 mph 52 % 0.01 in
13:06 90.1 °F 69.5 °F 29.79 in WSW 2.6 mph 5.8 mph 51 % 0.01 in
13:11 90.2 °F 71.8 °F 29.79 in WSW 4.5 mph 6.9 mph 55 % 0.01 in
13:16 90.4 °F 72.0 °F 29.79 in SW 4.9 mph 6.9 mph 55 % 0.01 in
13:21 90.5 °F 69.9 °F 29.79 in WSW 5.6 mph 9.2 mph 51 % 0.01 in
13:26 90.6 °F 71.1 °F 29.79 in West 3.0 mph 9.2 mph 53 % 0.00 in
13:31 90.7 °F 70.7 °F 29.79 in WNW 2.1 mph 5.8 mph 52 % 0.00 in
13:36 90.8 °F 71.3 °F 29.79 in West 4.4 mph 8.1 mph 53 % 0.00 in
13:41 90.9 °F 70.8 °F 29.79 in WNW 3.3 mph 6.0 mph 52 % 0.00 in
13:46 91.0 °F 73.1 °F 29.79 in SSW 1.1 mph 3.0 mph 56 % 0.00 in
13:51 91.1 °F 73.7 °F 29.79 in NNW 0.5 mph 1.2 mph 57 % 0.00 in
13:56 91.1 °F 73.2 °F 29.79 in North 0.9 mph 3.5 mph 56 % 0.00 in
14:01 91.3 °F 73.4 °F 29.79 in West 1.2 mph 4.6 mph 56 % 0.00 in
14:06 91.1 °F 72.7 °F 29.78 in North 1.9 mph 3.5 mph 55 % 0.00 in
14:11 91.0 °F 72.6 °F 29.78 in NE 1.6 mph 4.0 mph 55 % 0.00 in
14:16 90.9 °F 72.5 °F 29.78 in West 1.9 mph 3.5 mph 55 % 0.00 in
14:21 91.1 °F 72.7 °F 29.78 in WSW 1.3 mph 3.5 mph 55 % 0.00 in
14:26 91.2 °F 71.7 °F 29.78 in WNW 2.2 mph 6.9 mph 53 % 0.00 in
14:31 91.3 °F 72.9 °F 29.78 in WNW 0.5 mph 7.0 mph 55 % 0.00 in
14:36 91.4 °F 71.3 °F 29.78 in WNW 4.8 mph 8.0 mph 52 % 0.00 in
14:41 91.4 °F 71.9 °F 29.78 in NNE 2.2 mph 4.0 mph 53 % 0.00 in
14:46 91.5 °F 70.8 °F 29.78 in NW 5.4 mph 7.0 mph 51 % 0.00 in
14:51 91.5 °F 72.5 °F 29.77 in NW 0.8 mph 3.5 mph 54 % 0.00 in
14:56 91.6 °F 74.2 °F 29.77 in West 0.2 mph 1.2 mph 57 % 0.00 in
15:01 91.7 °F 73.2 °F 29.77 in NW 1.0 mph 3.5 mph 55 % 0.00 in
15:06 91.9 °F 72.3 °F 29.77 in NW 3.8 mph 6.0 mph 53 % 0.00 in
15:11 91.9 °F 71.8 °F 29.77 in West 2.7 mph 4.6 mph 52 % 0.00 in
15:16 92.1 °F 71.9 °F 29.77 in WSW 2.6 mph 4.6 mph 52 % 0.00 in
15:21 92.2 °F 71.5 °F 29.77 in West 1.9 mph 4.6 mph 51 % 0.00 in
15:27 92.2 °F 72.0 °F 29.77 in WNW 2.6 mph 4.0 mph 52 % 0.00 in
15:32 91.9 °F 70.6 °F 29.77 in NNE 1.1 mph 3.5 mph 50 % 0.00 in
15:37 91.3 °F 72.3 °F 29.77 in NW 0.7 mph 3.5 mph 54 % 0.00 in
15:42 91.0 °F 70.4 °F 29.77 in WSW 1.5 mph 3.5 mph 51 % 0.00 in
15:47 91.1 °F 72.7 °F 29.77 in NW 0.8 mph 2.3 mph 55 % 0.00 in
15:52 91.2 °F 72.2 °F 29.77 in WNW 0.1 mph 1.2 mph 54 % 0.00 in
15:57 91.3 °F 70.1 °F 29.77 in West 3.7 mph 5.8 mph 50 % 0.00 in
16:02 91.4 °F 71.3 °F 29.77 in WNW 0.5 mph 2.0 mph 52 % 0.00 in
16:07 91.3 °F 70.6 °F 29.77 in West 3.8 mph 6.9 mph 51 % 0.00 in
16:12 91.3 °F 71.8 °F 29.77 in West 0.4 mph 1.2 mph 53 % 0.00 in
16:17 91.2 °F 69.4 °F 29.77 in West 1.9 mph 3.5 mph 49 % 0.00 in
16:22 91.2 °F 68.8 °F 29.77 in WNW 1.1 mph 2.3 mph 48 % 0.00 in
16:27 91.2 °F 70.5 °F 29.77 in WSW 0.4 mph 1.2 mph 51 % 0.00 in
16:32 91.1 °F 69.9 °F 29.77 in West 1.9 mph 3.5 mph 50 % 0.00 in
16:37 91.0 °F 68.6 °F 29.77 in West 2.8 mph 4.6 mph 48 % 0.00 in
16:42 91.0 °F 69.2 °F 29.77 in WNW 1.2 mph 2.3 mph 49 % 0.00 in
16:44 90.8 °F 70.7 °F 29.77 in NW 0.1 mph 1.2 mph 52 % 0.00 in
16:49 90.5 °F 69.9 °F 29.77 in West 1.9 mph 4.0 mph 51 % 0.00 in
16:55 90.3 °F 68.5 °F 29.77 in West 2.8 mph 4.0 mph 49 % 0.00 in
17:00 90.3 °F 68.5 °F 29.76 in West 0.7 mph 6.9 mph 49 % 0.00 in
17:05 90.2 °F 69.6 °F 29.77 in Calm   3.5 mph 51 % 0.00 in
17:10 90.1 °F 67.8 °F 29.77 in WNW 1.6 mph 5.8 mph 48 % 0.00 in
17:15 89.9 °F 68.8 °F 29.77 in WNW 1.8 mph 3.5 mph 50 % 0.00 in
17:20 89.8 °F 68.1 °F 29.76 in Calm     49 % 0.00 in
17:25 89.8 °F 68.1 °F 29.76 in SW 1.6 mph 5.0 mph 49 % 0.00 in
17:30 89.7 °F 68.6 °F 29.76 in WNW 0.3 mph 2.3 mph 50 % 0.00 in
17:35 89.5 °F 67.8 °F 29.76 in West 2.1 mph 3.5 mph 49 % 0.00 in
17:40 89.3 °F 68.2 °F 29.76 in WNW 2.3 mph 4.6 mph 50 % 0.00 in
17:45 89.1 °F 67.5 °F 29.76 in SW 2.8 mph 4.0 mph 49 % 0.00 in
17:50 88.9 °F 68.4 °F 29.76 in SSW 1.1 mph 3.5 mph 51 % 0.00 in
17:55 88.7 °F 67.7 °F 29.76 in SW 0.1 mph 3.5 mph 50 % 0.00 in
18:00 88.4 °F 67.4 °F 29.76 in WSW 0.6 mph 3.5 mph 50 % 0.00 in
18:05 88.2 °F 67.8 °F 29.76 in WSW 2.5 mph 4.6 mph 51 % 0.00 in
18:10 88.0 °F 67.6 °F 29.76 in WSW 1.3 mph 3.5 mph 51 % 0.00 in
18:15 87.7 °F 68.4 °F 29.76 in SW 0.7 mph 3.5 mph 53 % 0.00 in
18:20 87.5 °F 69.3 °F 29.76 in SW 0.5 mph 4.0 mph 55 % 0.00 in
18:25 87.2 °F 69.6 °F 29.76 in WSW 0.5 mph 3.5 mph 56 % 0.00 in
18:31 87.0 °F 69.4 °F 29.76 in Calm   3.0 mph 56 % 0.00 in
18:36 86.8 °F 69.7 °F 29.76 in SW 0.1 mph 1.2 mph 57 % 0.00 in
18:41 86.5 °F 69.9 °F 29.76 in Calm   2.0 mph 58 % 0.00 in
18:46 86.1 °F 69.6 °F 29.76 in SW 1.0 mph 6.0 mph 58 % 0.00 in
18:51 85.9 °F 69.9 °F 29.76 in WSW 2.0 mph 10.0 mph 59 % 0.00 in
18:56 85.6 °F 69.6 °F 29.76 in WSW 1.0 mph 4.0 mph 59 % 0.00 in
19:01 85.2 °F 69.3 °F 29.77 in WSW 0.5 mph 2.3 mph 59 % 0.00 in
19:06 85.0 °F 69.6 °F 29.77 in Calm   2.3 mph 60 % 0.00 in
19:11 84.7 °F 69.8 °F 29.77 in SW 0.3 mph 1.2 mph 61 % 0.00 in
19:16 84.3 °F 69.4 °F 29.77 in SW 0.1 mph 1.0 mph 61 % 0.00 in
19:21 84.0 °F 69.6 °F 29.77 in Calm     62 % 0.00 in
19:26 83.7 °F 69.3 °F 29.76 in Calm     62 % 0.00 in
19:31 83.4 °F 69.5 °F 29.77 in Calm   1.0 mph 63 % 0.00 in
19:36 83.0 °F 69.6 °F 29.77 in Calm     64 % 0.00 in
19:41 82.7 °F 69.3 °F 29.77 in Calm   1.2 mph 64 % 0.00 in
19:46 82.4 °F 69.0 °F 29.78 in SW 0.3 mph 1.2 mph 64 % 0.00 in
19:51 82.1 °F 69.2 °F 29.78 in SW 0.2 mph 1.2 mph 65 % 0.00 in
19:56 81.7 °F 68.8 °F 29.78 in SW 0.1 mph 1.2 mph 65 % 0.00 in
20:01 81.4 °F 68.9 °F 29.78 in SW 0.1 mph 1.2 mph 66 % 0.00 in
20:06 81.1 °F 68.7 °F 29.78 in Calm     66 % 0.00 in
20:11 80.7 °F 68.7 °F 29.78 in Calm     67 % 0.00 in
20:16 80.5 °F 69.0 °F 29.78 in Calm     68 % 0.00 in
20:21 80.2 °F 68.7 °F 29.79 in Calm   1.2 mph 68 % 0.00 in
20:27 80.0 °F 68.9 °F 29.79 in Calm   1.0 mph 69 % 0.00 in
20:32 79.8 °F 69.1 °F 29.79 in Calm     70 % 0.00 in
20:37 79.6 °F 69.0 °F 29.79 in Calm   1.2 mph 70 % 0.00 in
20:42 79.3 °F 69.1 °F 29.79 in SW 0.1 mph   71 % 0.00 in
20:47 79.1 °F 68.9 °F 29.79 in Calm     71 % 0.00 in
20:52 78.9 °F 69.1 °F 29.80 in Calm   1.2 mph 72 % 0.00 in
20:57 78.6 °F 69.2 °F 29.79 in SW 0.3 mph 1.2 mph 73 % 0.00 in
21:02 78.4 °F 69.4 °F 29.79 in Calm   1.2 mph 74 % 0.00 in
21:07 78.2 °F 69.2 °F 29.80 in Calm   1.2 mph 74 % 0.00 in
21:12 78.0 °F 69.4 °F 29.80 in Calm     75 % 0.00 in
21:17 77.9 °F 69.3 °F 29.80 in Calm     75 % 0.00 in
21:22 77.7 °F 69.5 °F 29.80 in Calm     76 % 0.00 in
21:27 77.6 °F 69.4 °F 29.80 in Calm   1.2 mph 76 % 0.00 in
21:32 77.4 °F 69.6 °F 29.80 in Calm     77 % 0.00 in
21:37 77.2 °F 69.4 °F 29.81 in Calm   1.2 mph 77 % 0.00 in
21:41 77.1 °F 69.4 °F 29.81 in Calm   1.0 mph 77 % 0.00 in
21:46 77.0 °F 69.6 °F 29.81 in Calm   1.0 mph 78 % 0.00 in
21:51 76.9 °F 69.5 °F 29.81 in Calm     78 % 0.00 in
21:56 76.7 °F 69.3 °F 29.82 in Calm     78 % 0.00 in
22:01 76.5 °F 69.5 °F 29.82 in Calm     79 % 0.00 in
22:06 76.4 °F 69.4 °F 29.82 in Calm     79 % 0.00 in
22:11 76.2 °F 69.2 °F 29.82 in Calm   1.2 mph 79 % 0.00 in
22:16 76.0 °F 69.0 °F 29.82 in Calm     79 % 0.00 in
22:21 75.9 °F 68.9 °F 29.83 in Calm     79 % 0.00 in
22:26 75.8 °F 69.2 °F 29.82 in Calm     80 % 0.00 in
22:31 75.6 °F 69.0 °F 29.82 in Calm     80 % 0.00 in
22:36 75.5 °F 69.3 °F 29.83 in Calm     81 % 0.00 in
22:41 75.3 °F 69.1 °F 29.83 in Calm     81 % 0.00 in
22:46 75.2 °F 69.0 °F 29.83 in Calm     81 % 0.00 in
22:51 75.1 °F 68.9 °F 29.83 in Calm     81 % 0.00 in
22:56 75.0 °F 68.8 °F 29.83 in Calm     81 % 0.00 in
23:01 74.9 °F 69.0 °F 29.83 in SW 0.1 mph 1.0 mph 82 % 0.00 in
23:06 74.8 °F 68.9 °F 29.83 in Calm     82 % 0.00 in
23:12 74.7 °F 68.8 °F 29.83 in Calm     82 % 0.00 in
23:17 74.6 °F 69.1 °F 29.83 in Calm     83 % 0.00 in
23:21 74.5 °F 69.0 °F 29.83 in Calm     83 % 0.00 in
23:23 74.5 °F 69.0 °F 29.83 in Calm     83 % 0.00 in
23:25 74.5 °F 69.0 °F 29.83 in Calm     83 % 0.00 in
23:30 74.4 °F 68.9 °F 29.83 in Calm     83 % 0.00 in
23:35 74.3 °F 68.8 °F 29.83 in Calm     83 % 0.00 in
23:40 74.2 °F 68.3 °F 29.83 in Calm     82 % 0.00 in
23:45 74.2 °F 68.3 °F 29.82 in Calm     82 % 0.00 in
23:50 74.1 °F 68.6 °F 29.83 in Calm     83 % 0.00 in
23:55 74.0 °F 68.2 °F 29.82 in Calm     82 % 0.00 in
Crab Meadow Weather
Compliments of Weather Underground - 3 mb

Script developed by  Jim McMurry - jmcmurry@mwt.net Adapted for the template by  Wim van der Kuil - Leuven-Template.eu

Weather Terms: Winter Weather Advisory - Hazardous winter weather conditions are occurring, imminent or likely. Conditions will cause a significant inconvenience and if caution is not exercised, will result in a potential threat to life and/or property. The generic term, winter weather advisory, is used for a combination of two or more of the following events; snow, freezing rain or drizzle, sleet, blowing snow.